Flight Track Log - Related Links

Times and Time Zones

All times are in EDT time to prevent confusion due to time zone crossing. See the N510SR flight status page for this flight to view local times or setup timezone preferences in your user account.

Time Position Orientation Groundspeed Altitude Reporting Facility
EDT Latitude Longitude Course Direction KTS MPH feet Rate Location/Type
Sun 12:39:54 PM 40.7594 -75.3736 37° Northeast 244 281 5,600  Level New York Center
Sun 12:40:55 PM 40.8256 -75.4411 322° Northwest 241 277 6,100 1,328 Climbing New York Center
Sun 12:41:56 PM 40.9086 -75.4497 356° North 276 318 8,300 2,628 Climbing New York Center
Sun 12:42:56 PM 40.9981 -75.4531 358° North 311 358 11,400 2,678 Climbing New York Center
Sun 12:43:57 PM 41.1019 -75.4603 357° North 347 399 13,700 2,521 Climbing New York Center
Sun 12:44:00 PM 41.1520 -74.9396 37° Northeast  Level Estimated
Sun 12:44:55 PM 41.2058 -75.4647 358° North 391 450 16,400  Level New York Center
Sun 12:45:00 PM 41.2264 -74.8642 37° Northeast  Level Estimated
Sun 12:45:55 PM 41.3306 -75.4733 357° North 409 471 17,100  Level New York Center
Sun 12:46:55 PM 41.4475 -75.4622 North 423 487 18,700 585 Climbing New York Center
Sun 12:49:10 PM 41.6903 -75.3258 23° Northeast 441 507 19,000 91 Climbing Boston Center
Sun 12:50:12 PM 41.7967 -75.2444 30° Northeast 434 499 19,000  Level Boston Center
Sun 12:51:13 PM 41.9050 -75.1600 30° Northeast 439 505 19,000  Level Boston Center
Sun 12:52:11 PM 42.0131 -75.0836 28° Northeast 439 505 19,000  Level Boston Center
Sun 12:53:11 PM 42.1281 -74.9875 32° Northeast 439 505 19,000  Level Boston Center
Sun 12:54:12 PM 42.2181 -74.8733 43° Northeast 444 511 19,000  Level Boston Center
Sun 12:55:12 PM 42.2917 -74.7417 53° Northeast 437 503 19,000  Level Boston Center
Sun 12:56:13 PM 42.3586 -74.6206 53° Northeast 443 510 19,000  Level Boston Center
Sun 12:57:10 PM 42.4406 -74.4742 53° Northeast 443 510 19,000  Level Boston Center
Sun 12:58:11 PM 42.5072 -74.3553 53° Northeast 437 503 19,000  Level Boston Center
Sun 12:59:11 PM 42.5908 -74.2083 52° Northeast 437 503 19,000  Level Boston Center
Sun 01:00:13 PM 42.6553 -74.0917 53° Northeast 437 503 19,000 -353 Level Boston Center
Sun 01:01:10 PM 42.7406 -73.9469 51° Northeast 437 503 18,300 -1,017 Descending Boston Center
Sun 01:02:11 PM 42.8111 -73.8156 54° Northeast 432 497 17,000 -793 Descending Boston Center
Sun 01:03:11 PM 42.8728 -73.6981 54° Northeast 432 497 16,700 -893 Descending Boston Center
Sun 01:04:12 PM 42.9492 -73.5578 53° Northeast 427 491 15,200 -1,438 Descending Boston Center
Sun 01:05:12 PM 43.0086 -73.4481 53° Northeast 408 470 13,800 -1,488 Descending Boston Center
Sun 01:06:13 PM 43.0786 -73.3156 54° Northeast 398 458 12,200 -1,373 Descending Boston Center
Sun 01:07:10 PM 43.1314 -73.2194 53° Northeast 393 452 11,100 -615 Descending Boston Center
Sun 01:08:10 PM 43.2072 -73.0781 54° Northeast 382 440 11,000 -50 Descending Boston Center
Sun 01:09:11 PM 43.2744 -72.9592 52° Northeast 382 440 11,000 -149 Level Boston Center
Sun 01:10:11 PM 43.3292 -72.8569 54° Northeast 382 440 10,700 -942 Descending Boston Center
Sun 01:11:12 PM 43.3836 -72.7514 55° Northeast 366 421 9,100 -1,624 Descending Boston Center
Sun 01:12:24 PM 43.4358 -72.6575 53° Northeast 329 379 7,100 -1,173 Descending Boston Center
Sun 01:13:25 PM 43.4925 -72.5458 55° Northeast 307 353 6,500 -305 Descending Boston Center
Sun 01:14:22 PM 43.5425 -72.4572 52° Northeast 297 342 6,500 -661 Level Boston Center
Sun 01:15:23 PM 43.5694 -72.3597 69° East 278 320 5,200 -1,328 Descending Boston Center
Sun 01:16:24 PM 43.5881 -72.2625 75° East 260 299 3,800 -1,041 Descending Boston Center
Sun 01:17:24 PM 43.6150 -72.1678 69° East 247 284 3,100 3,661 Descending Boston Center
Sun 01:18:22 PM 43.6356 -72.0814 72° East 247 284 11,000 8,172 Climbing Boston Center

Login

Don't have an account? Register now (free) for customized features, flight alerts, and more!